sensor_id;sensor_type;location;lat;lon;timestamp;P1;durP1;ratioP1;P2;durP2;ratioP2
20865;SDS011;10593;48.398;10.698;2022-07-18T00:00:10;1.27;;;1.17;;
20865;SDS011;10593;48.398;10.698;2022-07-18T00:02:36;1.53;;;1.43;;
20865;SDS011;10593;48.398;10.698;2022-07-18T00:05:02;1.80;;;1.70;;
20865;SDS011;10593;48.398;10.698;2022-07-18T00:07:29;1.67;;;1.50;;
20865;SDS011;10593;48.398;10.698;2022-07-18T00:09:54;1.77;;;1.50;;
20865;SDS011;10593;48.398;10.698;2022-07-18T00:12:20;1.10;;;1.10;;
20865;SDS011;10593;48.398;10.698;2022-07-18T00:14:46;1.30;;;1.30;;
20865;SDS011;10593;48.398;10.698;2022-07-18T00:17:11;1.30;;;1.20;;
20865;SDS011;10593;48.398;10.698;2022-07-18T00:19:38;1.43;;;1.37;;
20865;SDS011;10593;48.398;10.698;2022-07-18T00:22:04;1.60;;;1.50;;
20865;SDS011;10593;48.398;10.698;2022-07-18T00:24:30;2.30;;;1.40;;
20865;SDS011;10593;48.398;10.698;2022-07-18T00:26:57;1.40;;;1.30;;
20865;SDS011;10593;48.398;10.698;2022-07-18T00:29:24;1.77;;;1.30;;
20865;SDS011;10593;48.398;10.698;2022-07-18T00:31:50;1.47;;;1.37;;
20865;SDS011;10593;48.398;10.698;2022-07-18T00:34:16;1.43;;;1.33;;
20865;SDS011;10593;48.398;10.698;2022-07-18T00:36:42;1.70;;;1.33;;
20865;SDS011;10593;48.398;10.698;2022-07-18T00:39:08;1.27;;;1.27;;
20865;SDS011;10593;48.398;10.698;2022-07-18T00:41:34;1.90;;;1.33;;
20865;SDS011;10593;48.398;10.698;2022-07-18T00:44:00;1.40;;;1.23;;
20865;SDS011;10593;48.398;10.698;2022-07-18T00:46:26;1.60;;;1.50;;
20865;SDS011;10593;48.398;10.698;2022-07-18T00:48:53;1.60;;;1.50;;
20865;SDS011;10593;48.398;10.698;2022-07-18T00:51:19;2.13;;;1.47;;
20865;SDS011;10593;48.398;10.698;2022-07-18T00:53:46;1.37;;;1.30;;
20865;SDS011;10593;48.398;10.698;2022-07-18T00:56:18;1.60;;;1.50;;
20865;SDS011;10593;48.398;10.698;2022-07-18T00:58:46;1.67;;;1.40;;
20865;SDS011;10593;48.398;10.698;2022-07-18T01:01:12;1.37;;;1.27;;
20865;SDS011;10593;48.398;10.698;2022-07-18T01:03:57;1.30;;;1.30;;
20865;SDS011;10593;48.398;10.698;2022-07-18T01:06:23;1.30;;;1.30;;
20865;SDS011;10593;48.398;10.698;2022-07-18T01:08:48;1.60;;;1.33;;
20865;SDS011;10593;48.398;10.698;2022-07-18T01:11:14;1.67;;;1.50;;
20865;SDS011;10593;48.398;10.698;2022-07-18T01:13:40;1.23;;;1.23;;
20865;SDS011;10593;48.398;10.698;2022-07-18T01:16:07;1.53;;;1.43;;
20865;SDS011;10593;48.398;10.698;2022-07-18T01:18:33;1.80;;;1.70;;
20865;SDS011;10593;48.398;10.698;2022-07-18T01:20:59;1.60;;;1.50;;
20865;SDS011;10593;48.398;10.698;2022-07-18T01:23:25;1.50;;;1.40;;
20865;SDS011;10593;48.398;10.698;2022-07-18T01:25:51;1.60;;;1.50;;
20865;SDS011;10593;48.398;10.698;2022-07-18T01:28:17;1.57;;;1.47;;
20865;SDS011;10593;48.398;10.698;2022-07-18T01:30:42;3.20;;;1.50;;
20865;SDS011;10593;48.398;10.698;2022-07-18T01:33:08;1.37;;;1.27;;
20865;SDS011;10593;48.398;10.698;2022-07-18T01:35:34;1.60;;;1.50;;
20865;SDS011;10593;48.398;10.698;2022-07-18T01:38:01;1.47;;;1.40;;
20865;SDS011;10593;48.398;10.698;2022-07-18T01:40:28;2.10;;;1.50;;
20865;SDS011;10593;48.398;10.698;2022-07-18T01:42:55;1.60;;;1.50;;
20865;SDS011;10593;48.398;10.698;2022-07-18T01:45:21;1.50;;;1.33;;
20865;SDS011;10593;48.398;10.698;2022-07-18T01:47:47;1.50;;;1.40;;
20865;SDS011;10593;48.398;10.698;2022-07-18T01:50:13;1.20;;;1.20;;
20865;SDS011;10593;48.398;10.698;2022-07-18T01:52:40;1.37;;;1.30;;
20865;SDS011;10593;48.398;10.698;2022-07-18T01:55:06;1.67;;;1.43;;
20865;SDS011;10593;48.398;10.698;2022-07-18T01:57:34;1.50;;;1.40;;
20865;SDS011;10593;48.398;10.698;2022-07-18T02:00:01;1.60;;;1.50;;
20865;SDS011;10593;48.398;10.698;2022-07-18T02:02:30;1.67;;;1.40;;
20865;SDS011;10593;48.398;10.698;2022-07-18T02:04:56;3.70;;;1.50;;
20865;SDS011;10593;48.398;10.698;2022-07-18T02:07:24;1.50;;;1.40;;
20865;SDS011;10593;48.398;10.698;2022-07-18T02:09:56;2.03;;;1.93;;
20865;SDS011;10593;48.398;10.698;2022-07-18T02:12:23;1.40;;;1.40;;
20865;SDS011;10593;48.398;10.698;2022-07-18T02:14:49;1.60;;;1.50;;
20865;SDS011;10593;48.398;10.698;2022-07-18T02:17:15;1.70;;;1.60;;
20865;SDS011;10593;48.398;10.698;2022-07-18T02:19:42;1.70;;;1.60;;
20865;SDS011;10593;48.398;10.698;2022-07-18T02:22:08;1.50;;;1.40;;
20865;SDS011;10593;48.398;10.698;2022-07-18T02:24:34;1.33;;;1.33;;
20865;SDS011;10593;48.398;10.698;2022-07-18T02:26:59;1.60;;;1.50;;
20865;SDS011;10593;48.398;10.698;2022-07-18T02:29:25;2.53;;;1.57;;
20865;SDS011;10593;48.398;10.698;2022-07-18T02:31:51;1.10;;;1.10;;
20865;SDS011;10593;48.398;10.698;2022-07-18T02:34:17;1.60;;;1.37;;
20865;SDS011;10593;48.398;10.698;2022-07-18T02:36:43;1.60;;;1.50;;
20865;SDS011;10593;48.398;10.698;2022-07-18T02:39:09;1.23;;;1.23;;
20865;SDS011;10593;48.398;10.698;2022-07-18T02:41:35;1.67;;;1.57;;
20865;SDS011;10593;48.398;10.698;2022-07-18T02:44:01;1.73;;;1.63;;
20865;SDS011;10593;48.398;10.698;2022-07-18T02:46:28;1.40;;;1.30;;
20865;SDS011;10593;48.398;10.698;2022-07-18T02:48:54;1.50;;;1.40;;
20865;SDS011;10593;48.398;10.698;2022-07-18T02:51:19;1.53;;;1.43;;
20865;SDS011;10593;48.398;10.698;2022-07-18T02:53:45;2.13;;;1.70;;
20865;SDS011;10593;48.398;10.698;2022-07-18T02:56:11;2.03;;;1.60;;
20865;SDS011;10593;48.398;10.698;2022-07-18T02:58:36;2.70;;;1.77;;
20865;SDS011;10593;48.398;10.698;2022-07-18T03:01:02;2.37;;;1.60;;
20865;SDS011;10593;48.398;10.698;2022-07-18T03:03:28;1.53;;;1.43;;
20865;SDS011;10593;48.398;10.698;2022-07-18T03:05:54;2.03;;;1.80;;
20865;SDS011;10593;48.398;10.698;2022-07-18T03:08:19;1.70;;;1.60;;
20865;SDS011;10593;48.398;10.698;2022-07-18T03:10:45;1.50;;;1.40;;
20865;SDS011;10593;48.398;10.698;2022-07-18T03:13:11;2.10;;;1.57;;
20865;SDS011;10593;48.398;10.698;2022-07-18T03:15:37;1.67;;;1.57;;
20865;SDS011;10593;48.398;10.698;2022-07-18T03:18:04;1.67;;;1.57;;
20865;SDS011;10593;48.398;10.698;2022-07-18T03:20:31;1.43;;;1.33;;
20865;SDS011;10593;48.398;10.698;2022-07-18T03:22:56;1.97;;;1.60;;
20865;SDS011;10593;48.398;10.698;2022-07-18T03:25:22;1.80;;;1.70;;
20865;SDS011;10593;48.398;10.698;2022-07-18T03:27:48;1.40;;;1.40;;
20865;SDS011;10593;48.398;10.698;2022-07-18T03:30:14;1.77;;;1.60;;
20865;SDS011;10593;48.398;10.698;2022-07-18T03:32:40;1.77;;;1.47;;
20865;SDS011;10593;48.398;10.698;2022-07-18T03:35:06;1.60;;;1.50;;
20865;SDS011;10593;48.398;10.698;2022-07-18T03:37:32;1.73;;;1.63;;
20865;SDS011;10593;48.398;10.698;2022-07-18T03:39:57;1.40;;;1.40;;
20865;SDS011;10593;48.398;10.698;2022-07-18T03:42:23;1.93;;;1.70;;
20865;SDS011;10593;48.398;10.698;2022-07-18T03:44:49;2.03;;;1.30;;
20865;SDS011;10593;48.398;10.698;2022-07-18T03:47:15;1.70;;;1.47;;
20865;SDS011;10593;48.398;10.698;2022-07-18T03:49:40;1.77;;;1.67;;
20865;SDS011;10593;48.398;10.698;2022-07-18T03:52:06;1.63;;;1.53;;
20865;SDS011;10593;48.398;10.698;2022-07-18T03:54:32;1.53;;;1.40;;
20865;SDS011;10593;48.398;10.698;2022-07-18T03:56:58;1.70;;;1.60;;
20865;SDS011;10593;48.398;10.698;2022-07-18T03:59:23;2.23;;;1.80;;
20865;SDS011;10593;48.398;10.698;2022-07-18T04:01:49;2.10;;;2.00;;
20865;SDS011;10593;48.398;10.698;2022-07-18T04:04:15;2.00;;;1.90;;
20865;SDS011;10593;48.398;10.698;2022-07-18T04:06:40;1.70;;;1.60;;
20865;SDS011;10593;48.398;10.698;2022-07-18T04:09:06;1.60;;;1.47;;
20865;SDS011;10593;48.398;10.698;2022-07-18T04:11:31;1.80;;;1.70;;
20865;SDS011;10593;48.398;10.698;2022-07-18T04:13:57;1.80;;;1.70;;
20865;SDS011;10593;48.398;10.698;2022-07-18T04:16:24;1.80;;;1.70;;
20865;SDS011;10593;48.398;10.698;2022-07-18T04:18:49;1.70;;;1.50;;
20865;SDS011;10593;48.398;10.698;2022-07-18T04:21:15;2.00;;;1.60;;
20865;SDS011;10593;48.398;10.698;2022-07-18T04:23:41;1.87;;;1.77;;
20865;SDS011;10593;48.398;10.698;2022-07-18T04:26:08;1.90;;;1.80;;
20865;SDS011;10593;48.398;10.698;2022-07-18T04:28:34;2.00;;;1.70;;
20865;SDS011;10593;48.398;10.698;2022-07-18T04:31:00;2.00;;;1.90;;
20865;SDS011;10593;48.398;10.698;2022-07-18T04:33:26;1.97;;;1.87;;
20865;SDS011;10593;48.398;10.698;2022-07-18T04:35:52;2.20;;;2.00;;
20865;SDS011;10593;48.398;10.698;2022-07-18T04:38:18;1.57;;;1.47;;
20865;SDS011;10593;48.398;10.698;2022-07-18T04:40:44;2.93;;;1.50;;
20865;SDS011;10593;48.398;10.698;2022-07-18T04:43:09;1.93;;;1.83;;
20865;SDS011;10593;48.398;10.698;2022-07-18T04:45:35;1.93;;;1.83;;
20865;SDS011;10593;48.398;10.698;2022-07-18T04:48:02;2.00;;;1.80;;
20865;SDS011;10593;48.398;10.698;2022-07-18T04:50:30;1.80;;;1.70;;
20865;SDS011;10593;48.398;10.698;2022-07-18T04:52:56;5.10;;;1.70;;
20865;SDS011;10593;48.398;10.698;2022-07-18T04:55:23;1.63;;;1.53;;
20865;SDS011;10593;48.398;10.698;2022-07-18T04:57:53;1.80;;;1.70;;
20865;SDS011;10593;48.398;10.698;2022-07-18T05:00:20;2.03;;;1.93;;
20865;SDS011;10593;48.398;10.698;2022-07-18T05:02:52;1.90;;;1.80;;
20865;SDS011;10593;48.398;10.698;2022-07-18T05:05:20;2.30;;;1.70;;
20865;SDS011;10593;48.398;10.698;2022-07-18T05:07:47;1.90;;;1.80;;
20865;SDS011;10593;48.398;10.698;2022-07-18T05:10:14;5.37;;;2.80;;
20865;SDS011;10593;48.398;10.698;2022-07-18T05:12:43;1.80;;;1.70;;
20865;SDS011;10593;48.398;10.698;2022-07-18T05:15:13;1.90;;;1.80;;
20865;SDS011;10593;48.398;10.698;2022-07-18T05:17:40;1.77;;;1.67;;
20865;SDS011;10593;48.398;10.698;2022-07-18T05:20:08;1.90;;;1.80;;
20865;SDS011;10593;48.398;10.698;2022-07-18T05:22:39;1.97;;;1.87;;
20865;SDS011;10593;48.398;10.698;2022-07-18T05:25:06;1.90;;;1.80;;
20865;SDS011;10593;48.398;10.698;2022-07-18T05:27:34;2.03;;;1.93;;
20865;SDS011;10593;48.398;10.698;2022-07-18T05:30:00;1.90;;;1.80;;
20865;SDS011;10593;48.398;10.698;2022-07-18T05:32:29;2.00;;;1.90;;
20865;SDS011;10593;48.398;10.698;2022-07-18T05:34:55;2.57;;;2.37;;
20865;SDS011;10593;48.398;10.698;2022-07-18T05:37:21;3.50;;;2.10;;
20865;SDS011;10593;48.398;10.698;2022-07-18T05:39:47;2.20;;;2.10;;
20865;SDS011;10593;48.398;10.698;2022-07-18T05:42:15;1.80;;;1.70;;
20865;SDS011;10593;48.398;10.698;2022-07-18T05:44:40;1.70;;;1.60;;
20865;SDS011;10593;48.398;10.698;2022-07-18T05:47:07;1.90;;;1.80;;
20865;SDS011;10593;48.398;10.698;2022-07-18T05:49:32;2.00;;;1.87;;
20865;SDS011;10593;48.398;10.698;2022-07-18T05:51:58;1.90;;;1.67;;
20865;SDS011;10593;48.398;10.698;2022-07-18T05:54:24;1.83;;;1.73;;
20865;SDS011;10593;48.398;10.698;2022-07-18T05:56:50;2.00;;;1.90;;
20865;SDS011;10593;48.398;10.698;2022-07-18T05:59:18;2.33;;;2.13;;
20865;SDS011;10593;48.398;10.698;2022-07-18T06:01:45;2.10;;;2.00;;
20865;SDS011;10593;48.398;10.698;2022-07-18T06:04:11;1.90;;;1.80;;
20865;SDS011;10593;48.398;10.698;2022-07-18T06:06:37;2.10;;;2.00;;
20865;SDS011;10593;48.398;10.698;2022-07-18T06:09:04;2.10;;;1.70;;
20865;SDS011;10593;48.398;10.698;2022-07-18T06:11:30;1.67;;;1.57;;
20865;SDS011;10593;48.398;10.698;2022-07-18T06:13:57;2.00;;;1.80;;
20865;SDS011;10593;48.398;10.698;2022-07-18T06:16:23;2.23;;;2.03;;
20865;SDS011;10593;48.398;10.698;2022-07-18T06:18:49;2.27;;;2.00;;
20865;SDS011;10593;48.398;10.698;2022-07-18T06:21:15;2.23;;;1.90;;
20865;SDS011;10593;48.398;10.698;2022-07-18T06:23:40;1.77;;;1.67;;
20865;SDS011;10593;48.398;10.698;2022-07-18T06:26:07;1.90;;;1.80;;
20865;SDS011;10593;48.398;10.698;2022-07-18T06:28:33;3.07;;;2.00;;
20865;SDS011;10593;48.398;10.698;2022-07-18T06:30:58;2.23;;;1.80;;
20865;SDS011;10593;48.398;10.698;2022-07-18T06:33:25;2.50;;;1.70;;
20865;SDS011;10593;48.398;10.698;2022-07-18T06:35:51;2.30;;;2.10;;
20865;SDS011;10593;48.398;10.698;2022-07-18T06:38:17;2.10;;;1.90;;
20865;SDS011;10593;48.398;10.698;2022-07-18T06:40:42;2.53;;;1.67;;
20865;SDS011;10593;48.398;10.698;2022-07-18T06:43:09;1.60;;;1.50;;
20865;SDS011;10593;48.398;10.698;2022-07-18T06:45:36;1.60;;;1.50;;
20865;SDS011;10593;48.398;10.698;2022-07-18T06:48:02;1.43;;;1.33;;
20865;SDS011;10593;48.398;10.698;2022-07-18T06:50:27;2.70;;;1.53;;
20865;SDS011;10593;48.398;10.698;2022-07-18T06:52:54;2.07;;;1.97;;
20865;SDS011;10593;48.398;10.698;2022-07-18T06:55:19;1.57;;;1.47;;
20865;SDS011;10593;48.398;10.698;2022-07-18T06:57:45;1.83;;;1.73;;
20865;SDS011;10593;48.398;10.698;2022-07-18T07:00:12;1.90;;;1.80;;
20865;SDS011;10593;48.398;10.698;2022-07-18T07:02:40;2.17;;;1.97;;
20865;SDS011;10593;48.398;10.698;2022-07-18T07:05:12;2.03;;;1.60;;
20865;SDS011;10593;48.398;10.698;2022-07-18T07:07:40;1.50;;;1.40;;
20865;SDS011;10593;48.398;10.698;2022-07-18T07:10:06;2.33;;;1.70;;
20865;SDS011;10593;48.398;10.698;2022-07-18T07:12:42;1.43;;;1.43;;
20865;SDS011;10593;48.398;10.698;2022-07-18T07:15:12;2.37;;;2.03;;
20865;SDS011;10593;48.398;10.698;2022-07-18T07:17:39;1.67;;;1.57;;
20865;SDS011;10593;48.398;10.698;2022-07-18T07:20:05;1.70;;;1.60;;
20865;SDS011;10593;48.398;10.698;2022-07-18T07:22:40;1.60;;;1.50;;
20865;SDS011;10593;48.398;10.698;2022-07-18T07:25:11;1.63;;;1.53;;
20865;SDS011;10593;48.398;10.698;2022-07-18T07:27:37;1.40;;;1.30;;
20865;SDS011;10593;48.398;10.698;2022-07-18T07:30:04;1.60;;;1.50;;
20865;SDS011;10593;48.398;10.698;2022-07-18T07:32:37;2.20;;;2.10;;
20865;SDS011;10593;48.398;10.698;2022-07-18T07:35:05;1.70;;;1.60;;
20865;SDS011;10593;48.398;10.698;2022-07-18T07:37:35;1.70;;;1.60;;
20865;SDS011;10593;48.398;10.698;2022-07-18T07:40:02;1.67;;;1.57;;
20865;SDS011;10593;48.398;10.698;2022-07-18T07:42:28;1.40;;;1.30;;
20865;SDS011;10593;48.398;10.698;2022-07-18T07:44:54;1.60;;;1.50;;
20865;SDS011;10593;48.398;10.698;2022-07-18T07:47:20;1.40;;;1.30;;
20865;SDS011;10593;48.398;10.698;2022-07-18T07:49:46;1.87;;;1.20;;
20865;SDS011;10593;48.398;10.698;2022-07-18T07:52:11;2.30;;;1.40;;
20865;SDS011;10593;48.398;10.698;2022-07-18T07:54:38;1.50;;;1.40;;
20865;SDS011;10593;48.398;10.698;2022-07-18T07:57:05;1.23;;;1.23;;
20865;SDS011;10593;48.398;10.698;2022-07-18T07:59:31;1.87;;;1.60;;
20865;SDS011;10593;48.398;10.698;2022-07-18T08:01:57;1.40;;;1.30;;
20865;SDS011;10593;48.398;10.698;2022-07-18T08:04:23;1.43;;;1.30;;
20865;SDS011;10593;48.398;10.698;2022-07-18T08:06:49;2.13;;;1.80;;
20865;SDS011;10593;48.398;10.698;2022-07-18T08:09:15;1.97;;;1.40;;
20865;SDS011;10593;48.398;10.698;2022-07-18T08:11:41;1.10;;;1.10;;
20865;SDS011;10593;48.398;10.698;2022-07-18T08:14:07;1.23;;;1.13;;
20865;SDS011;10593;48.398;10.698;2022-07-18T08:16:32;1.30;;;1.30;;
20865;SDS011;10593;48.398;10.698;2022-07-18T08:18:58;1.37;;;1.27;;
20865;SDS011;10593;48.398;10.698;2022-07-18T08:21:24;2.17;;;1.60;;
20865;SDS011;10593;48.398;10.698;2022-07-18T08:23:49;1.17;;;1.17;;
20865;SDS011;10593;48.398;10.698;2022-07-18T08:26:15;1.67;;;1.57;;
20865;SDS011;10593;48.398;10.698;2022-07-18T08:28:41;1.20;;;1.20;;
20865;SDS011;10593;48.398;10.698;2022-07-18T08:31:07;2.57;;;1.13;;
20865;SDS011;10593;48.398;10.698;2022-07-18T08:33:32;1.00;;;1.00;;
20865;SDS011;10593;48.398;10.698;2022-07-18T08:35:58;2.37;;;1.40;;
20865;SDS011;10593;48.398;10.698;2022-07-18T08:38:24;1.30;;;1.20;;
20865;SDS011;10593;48.398;10.698;2022-07-18T08:40:49;1.70;;;1.03;;
20865;SDS011;10593;48.398;10.698;2022-07-18T08:43:18;1.70;;;0.90;;
20865;SDS011;10593;48.398;10.698;2022-07-18T08:45:44;1.17;;;1.07;;
20865;SDS011;10593;48.398;10.698;2022-07-18T08:48:15;1.53;;;1.00;;
20865;SDS011;10593;48.398;10.698;2022-07-18T08:50:43;1.10;;;1.10;;
20865;SDS011;10593;48.398;10.698;2022-07-18T08:53:10;1.20;;;1.10;;
20865;SDS011;10593;48.398;10.698;2022-07-18T08:55:38;1.70;;;1.00;;
20865;SDS011;10593;48.398;10.698;2022-07-18T08:58:03;1.13;;;1.03;;
20865;SDS011;10593;48.398;10.698;2022-07-18T09:00:29;1.17;;;1.17;;
20865;SDS011;10593;48.398;10.698;2022-07-18T09:03:03;1.40;;;1.10;;
20865;SDS011;10593;48.398;10.698;2022-07-18T09:05:29;1.37;;;1.20;;
20865;SDS011;10593;48.398;10.698;2022-07-18T09:08:13;1.30;;;1.20;;
20865;SDS011;10593;48.398;10.698;2022-07-18T09:10:57;1.67;;;1.20;;
20865;SDS011;10593;48.398;10.698;2022-07-18T09:13:46;1.93;;;1.30;;
20865;SDS011;10593;48.398;10.698;2022-07-18T09:16:12;1.00;;;1.00;;
20865;SDS011;10593;48.398;10.698;2022-07-18T09:18:40;1.47;;;1.37;;
20865;SDS011;10593;48.398;10.698;2022-07-18T09:21:15;1.20;;;1.10;;
20865;SDS011;10593;48.398;10.698;2022-07-18T09:23:46;1.33;;;1.23;;
20865;SDS011;10593;48.398;10.698;2022-07-18T09:29:07;0.97;;;0.90;;
20865;SDS011;10593;48.398;10.698;2022-07-18T09:31:35;1.33;;;1.23;;
20865;SDS011;10593;48.398;10.698;2022-07-18T09:34:02;1.17;;;1.13;;
20865;SDS011;10593;48.398;10.698;2022-07-18T09:36:29;1.87;;;1.10;;
20865;SDS011;10593;48.398;10.698;2022-07-18T09:39:01;2.30;;;1.00;;
20865;SDS011;10593;48.398;10.698;2022-07-18T09:41:45;1.30;;;1.30;;
20865;SDS011;10593;48.398;10.698;2022-07-18T09:44:15;3.73;;;1.07;;
20865;SDS011;10593;48.398;10.698;2022-07-18T09:46:58;3.27;;;0.97;;
20865;SDS011;10593;48.398;10.698;2022-07-18T09:49:31;0.80;;;0.80;;
20865;SDS011;10593;48.398;10.698;2022-07-18T09:52:06;4.33;;;1.23;;
20865;SDS011;10593;48.398;10.698;2022-07-18T09:57:07;1.57;;;1.20;;
20865;SDS011;10593;48.398;10.698;2022-07-18T09:59:34;0.93;;;0.90;;
20865;SDS011;10593;48.398;10.698;2022-07-18T10:02:02;1.00;;;1.00;;
20865;SDS011;10593;48.398;10.698;2022-07-18T10:04:29;1.00;;;1.00;;
20865;SDS011;10593;48.398;10.698;2022-07-18T10:06:56;1.23;;;1.13;;
20865;SDS011;10593;48.398;10.698;2022-07-18T10:09:22;1.20;;;1.10;;
20865;SDS011;10593;48.398;10.698;2022-07-18T10:11:48;1.37;;;1.27;;
20865;SDS011;10593;48.398;10.698;2022-07-18T10:14:14;1.97;;;1.10;;
20865;SDS011;10593;48.398;10.698;2022-07-18T10:16:40;0.80;;;0.80;;
20865;SDS011;10593;48.398;10.698;2022-07-18T10:19:06;1.63;;;0.97;;
20865;SDS011;10593;48.398;10.698;2022-07-18T10:21:33;0.90;;;0.90;;
20865;SDS011;10593;48.398;10.698;2022-07-18T10:24:00;1.10;;;1.10;;
20865;SDS011;10593;48.398;10.698;2022-07-18T10:26:27;1.77;;;1.10;;
20865;SDS011;10593;48.398;10.698;2022-07-18T10:31:26;1.03;;;0.93;;
20865;SDS011;10593;48.398;10.698;2022-07-18T10:36:32;1.47;;;0.80;;
20865;SDS011;10593;48.398;10.698;2022-07-18T10:57:27;1.00;;;1.00;;
20865;SDS011;10593;48.398;10.698;2022-07-18T11:00:01;1.07;;;0.90;;
20865;SDS011;10593;48.398;10.698;2022-07-18T11:02:41;0.80;;;0.80;;
20865;SDS011;10593;48.398;10.698;2022-07-18T11:15:54;1.57;;;1.17;;
20865;SDS011;10593;48.398;10.698;2022-07-18T11:18:21;0.90;;;0.90;;
20865;SDS011;10593;48.398;10.698;2022-07-18T11:20:48;1.37;;;1.27;;
20865;SDS011;10593;48.398;10.698;2022-07-18T11:25:48;1.73;;;1.00;;
20865;SDS011;10593;48.398;10.698;2022-07-18T11:28:19;1.30;;;1.20;;
20865;SDS011;10593;48.398;10.698;2022-07-18T11:30:46;1.63;;;1.17;;
20865;SDS011;10593;48.398;10.698;2022-07-18T11:33:28;1.37;;;1.00;;
20865;SDS011;10593;48.398;10.698;2022-07-18T11:36:17;2.10;;;1.07;;
20865;SDS011;10593;48.398;10.698;2022-07-18T11:38:47;1.20;;;1.10;;
20865;SDS011;10593;48.398;10.698;2022-07-18T11:41:22;2.17;;;1.27;;
20865;SDS011;10593;48.398;10.698;2022-07-18T11:43:49;1.40;;;1.40;;
20865;SDS011;10593;48.398;10.698;2022-07-18T11:46:17;1.03;;;1.00;;
20865;SDS011;10593;48.398;10.698;2022-07-18T11:48:46;3.77;;;1.10;;
20865;SDS011;10593;48.398;10.698;2022-07-18T11:51:17;0.80;;;0.80;;
20865;SDS011;10593;48.398;10.698;2022-07-18T11:53:45;1.40;;;0.83;;
20865;SDS011;10593;48.398;10.698;2022-07-18T11:56:13;1.13;;;0.80;;
20865;SDS011;10593;48.398;10.698;2022-07-18T11:58:42;0.90;;;0.90;;
20865;SDS011;10593;48.398;10.698;2022-07-18T12:01:10;2.23;;;0.97;;
20865;SDS011;10593;48.398;10.698;2022-07-18T12:03:39;6.63;;;1.30;;
20865;SDS011;10593;48.398;10.698;2022-07-18T12:06:13;1.10;;;1.03;;
20865;SDS011;10593;48.398;10.698;2022-07-18T12:08:48;0.90;;;0.90;;
20865;SDS011;10593;48.398;10.698;2022-07-18T12:11:27;1.45;;;0.95;;
20865;SDS011;10593;48.398;10.698;2022-07-18T12:14:00;1.92;;;0.95;;
20865;SDS011;10593;48.398;10.698;2022-07-18T12:21:49;0.93;;;0.83;;
20865;SDS011;10593;48.398;10.698;2022-07-18T12:29:56;1.37;;;1.00;;
20865;SDS011;10593;48.398;10.698;2022-07-18T12:38:04;1.77;;;0.82;;
20865;SDS011;10593;48.398;10.698;2022-07-18T12:43:18;0.80;;;0.80;;
20865;SDS011;10593;48.398;10.698;2022-07-18T12:45:51;2.33;;;1.00;;
20865;SDS011;10593;48.398;10.698;2022-07-18T12:48:19;0.80;;;0.80;;
20865;SDS011;10593;48.398;10.698;2022-07-18T12:50:46;1.05;;;0.90;;
20865;SDS011;10593;48.398;10.698;2022-07-18T12:53:21;0.90;;;0.90;;
20865;SDS011;10593;48.398;10.698;2022-07-18T12:55:46;1.13;;;1.03;;
20865;SDS011;10593;48.398;10.698;2022-07-18T12:58:12;0.90;;;0.90;;
20865;SDS011;10593;48.398;10.698;2022-07-18T13:00:37;1.00;;;1.00;;
20865;SDS011;10593;48.398;10.698;2022-07-18T13:03:03;1.70;;;1.00;;
20865;SDS011;10593;48.398;10.698;2022-07-18T13:05:29;0.70;;;0.70;;
20865;SDS011;10593;48.398;10.698;2022-07-18T13:07:55;2.70;;;0.80;;
20865;SDS011;10593;48.398;10.698;2022-07-18T13:10:21;0.70;;;0.67;;
20865;SDS011;10593;48.398;10.698;2022-07-18T13:12:47;1.90;;;1.30;;
20865;SDS011;10593;48.398;10.698;2022-07-18T13:15:13;1.10;;;1.10;;
20865;SDS011;10593;48.398;10.698;2022-07-18T13:17:39;1.00;;;0.90;;
20865;SDS011;10593;48.398;10.698;2022-07-18T13:20:05;1.23;;;0.93;;
20865;SDS011;10593;48.398;10.698;2022-07-18T13:22:31;0.90;;;0.90;;
20865;SDS011;10593;48.398;10.698;2022-07-18T13:25:03;0.70;;;0.70;;
20865;SDS011;10593;48.398;10.698;2022-07-18T13:27:34;0.90;;;0.90;;
20865;SDS011;10593;48.398;10.698;2022-07-18T13:30:00;1.25;;;0.80;;
20865;SDS011;10593;48.398;10.698;2022-07-18T13:32:29;4.88;;;1.00;;
20865;SDS011;10593;48.398;10.698;2022-07-18T13:34:55;1.13;;;1.08;;
20865;SDS011;10593;48.398;10.698;2022-07-18T13:37:24;1.38;;;1.27;;
20865;SDS011;10593;48.398;10.698;2022-07-18T13:39:50;1.27;;;1.05;;
20865;SDS011;10593;48.398;10.698;2022-07-18T13:42:15;2.00;;;1.00;;
20865;SDS011;10593;48.398;10.698;2022-07-18T13:44:41;0.80;;;0.80;;
20865;SDS011;10593;48.398;10.698;2022-07-18T13:47:10;2.90;;;0.90;;
20865;SDS011;10593;48.398;10.698;2022-07-18T13:49:36;1.30;;;1.20;;
20865;SDS011;10593;48.398;10.698;2022-07-18T13:52:02;1.17;;;1.10;;
20865;SDS011;10593;48.398;10.698;2022-07-18T13:54:29;1.30;;;0.93;;
20865;SDS011;10593;48.398;10.698;2022-07-18T13:56:54;1.53;;;1.10;;
20865;SDS011;10593;48.398;10.698;2022-07-18T13:59:20;1.37;;;1.10;;
20865;SDS011;10593;48.398;10.698;2022-07-18T14:01:45;1.97;;;1.00;;
20865;SDS011;10593;48.398;10.698;2022-07-18T14:04:11;1.20;;;1.00;;
20865;SDS011;10593;48.398;10.698;2022-07-18T14:06:37;1.27;;;1.17;;
20865;SDS011;10593;48.398;10.698;2022-07-18T14:09:03;0.90;;;0.90;;
20865;SDS011;10593;48.398;10.698;2022-07-18T14:11:30;1.80;;;1.10;;
20865;SDS011;10593;48.398;10.698;2022-07-18T14:13:59;1.13;;;1.00;;
20865;SDS011;10593;48.398;10.698;2022-07-18T14:16:26;1.40;;;1.00;;
20865;SDS011;10593;48.398;10.698;2022-07-18T14:18:53;1.25;;;0.90;;
20865;SDS011;10593;48.398;10.698;2022-07-18T14:21:18;2.13;;;1.20;;
20865;SDS011;10593;48.398;10.698;2022-07-18T14:23:44;1.20;;;1.10;;
20865;SDS011;10593;48.398;10.698;2022-07-18T14:26:10;1.17;;;1.07;;
20865;SDS011;10593;48.398;10.698;2022-07-18T14:28:36;1.85;;;1.10;;
20865;SDS011;10593;48.398;10.698;2022-07-18T14:31:01;1.25;;;1.00;;
20865;SDS011;10593;48.398;10.698;2022-07-18T14:33:27;1.42;;;1.30;;
20865;SDS011;10593;48.398;10.698;2022-07-18T14:35:53;1.33;;;1.23;;
20865;SDS011;10593;48.398;10.698;2022-07-18T14:38:18;1.10;;;1.10;;
20865;SDS011;10593;48.398;10.698;2022-07-18T14:40:44;1.25;;;1.15;;
20865;SDS011;10593;48.398;10.698;2022-07-18T14:43:10;1.20;;;1.10;;
20865;SDS011;10593;48.398;10.698;2022-07-18T14:45:35;3.33;;;1.40;;
20865;SDS011;10593;48.398;10.698;2022-07-18T14:48:01;4.25;;;1.25;;
20865;SDS011;10593;48.398;10.698;2022-07-18T14:50:27;3.30;;;1.43;;
20865;SDS011;10593;48.398;10.698;2022-07-18T14:52:52;1.30;;;1.27;;
20865;SDS011;10593;48.398;10.698;2022-07-18T14:55:18;1.13;;;0.97;;
20865;SDS011;10593;48.398;10.698;2022-07-18T14:57:44;0.90;;;0.90;;
20865;SDS011;10593;48.398;10.698;2022-07-18T15:00:10;4.70;;;1.08;;
20865;SDS011;10593;48.398;10.698;2022-07-18T15:02:37;1.35;;;1.10;;
20865;SDS011;10593;48.398;10.698;2022-07-18T15:05:04;1.60;;;0.90;;
20865;SDS011;10593;48.398;10.698;2022-07-18T15:07:31;1.48;;;1.10;;
20865;SDS011;10593;48.398;10.698;2022-07-18T15:09:56;1.25;;;1.15;;
20865;SDS011;10593;48.398;10.698;2022-07-18T15:12:22;1.30;;;1.00;;
20865;SDS011;10593;48.398;10.698;2022-07-18T15:14:48;2.30;;;1.20;;
20865;SDS011;10593;48.398;10.698;2022-07-18T15:17:14;1.67;;;1.17;;
20865;SDS011;10593;48.398;10.698;2022-07-18T15:19:40;1.15;;;1.08;;
20865;SDS011;10593;48.398;10.698;2022-07-18T15:22:05;1.17;;;0.90;;
20865;SDS011;10593;48.398;10.698;2022-07-18T15:24:32;3.78;;;1.30;;
20865;SDS011;10593;48.398;10.698;2022-07-18T15:26:59;1.00;;;1.00;;
20865;SDS011;10593;48.398;10.698;2022-07-18T15:29:25;1.23;;;1.10;;
20865;SDS011;10593;48.398;10.698;2022-07-18T15:31:51;1.00;;;1.00;;
20865;SDS011;10593;48.398;10.698;2022-07-18T15:34:18;1.25;;;1.05;;